sensor_id;sensor_type;location;lat;lon;timestamp;temperature;humidity
16736;DHT22;17990;49.548;9.730;2022-08-06T00:00:20;19.30;90.30
16736;DHT22;17990;49.548;9.730;2022-08-06T00:02:47;19.40;90.40
16736;DHT22;17990;49.548;9.730;2022-08-06T00:05:14;19.40;90.30
16736;DHT22;17990;49.548;9.730;2022-08-06T00:07:42;19.40;90.40
16736;DHT22;17990;49.548;9.730;2022-08-06T00:10:09;19.40;90.30
16736;DHT22;17990;49.548;9.730;2022-08-06T00:12:36;19.30;90.30
16736;DHT22;17990;49.548;9.730;2022-08-06T00:15:04;19.40;90.40
16736;DHT22;17990;49.548;9.730;2022-08-06T00:17:32;19.40;90.40
16736;DHT22;17990;49.548;9.730;2022-08-06T00:19:59;19.40;90.50
16736;DHT22;17990;49.548;9.730;2022-08-06T00:22:27;19.40;90.50
16736;DHT22;17990;49.548;9.730;2022-08-06T00:24:55;19.40;90.50
16736;DHT22;17990;49.548;9.730;2022-08-06T00:27:22;19.40;90.50
16736;DHT22;17990;49.548;9.730;2022-08-06T00:29:49;19.40;90.60
16736;DHT22;17990;49.548;9.730;2022-08-06T00:32:16;19.30;90.70
16736;DHT22;17990;49.548;9.730;2022-08-06T00:34:43;19.30;90.70
16736;DHT22;17990;49.548;9.730;2022-08-06T00:37:10;19.30;90.70
16736;DHT22;17990;49.548;9.730;2022-08-06T00:39:37;19.30;90.80
16736;DHT22;17990;49.548;9.730;2022-08-06T00:42:05;19.30;91.00
16736;DHT22;17990;49.548;9.730;2022-08-06T00:44:33;19.20;91.20
16736;DHT22;17990;49.548;9.730;2022-08-06T00:46:59;19.20;91.30
16736;DHT22;17990;49.548;9.730;2022-08-06T00:49:27;19.10;91.20
16736;DHT22;17990;49.548;9.730;2022-08-06T00:51:54;19.10;91.30
16736;DHT22;17990;49.548;9.730;2022-08-06T00:54:22;19.10;91.40
16736;DHT22;17990;49.548;9.730;2022-08-06T00:56:49;19.10;91.40
16736;DHT22;17990;49.548;9.730;2022-08-06T00:59:17;19.10;91.40
16736;DHT22;17990;49.548;9.730;2022-08-06T01:01:44;19.10;91.40
16736;DHT22;17990;49.548;9.730;2022-08-06T01:04:11;19.10;91.40
16736;DHT22;17990;49.548;9.730;2022-08-06T01:06:38;19.10;91.40
16736;DHT22;17990;49.548;9.730;2022-08-06T01:09:05;19.10;91.50
16736;DHT22;17990;49.548;9.730;2022-08-06T01:11:32;19.10;91.60
16736;DHT22;17990;49.548;9.730;2022-08-06T01:13:58;19.00;91.70
16736;DHT22;17990;49.548;9.730;2022-08-06T01:16:30;18.90;92.00
16736;DHT22;17990;49.548;9.730;2022-08-06T01:19:09;18.90;92.10
16736;DHT22;17990;49.548;9.730;2022-08-06T01:21:51;18.80;92.20
16736;DHT22;17990;49.548;9.730;2022-08-06T01:24:41;18.70;92.40
16736;DHT22;17990;49.548;9.730;2022-08-06T01:27:25;18.60;92.70
16736;DHT22;17990;49.548;9.730;2022-08-06T01:30:03;18.50;92.80
16736;DHT22;17990;49.548;9.730;2022-08-06T01:32:34;18.50;93.00
16736;DHT22;17990;49.548;9.730;2022-08-06T01:35:06;18.30;93.00
16736;DHT22;17990;49.548;9.730;2022-08-06T01:37:39;18.30;93.40
16736;DHT22;17990;49.548;9.730;2022-08-06T01:40:20;18.30;93.20
16736;DHT22;17990;49.548;9.730;2022-08-06T01:42:51;18.20;93.40
16736;DHT22;17990;49.548;9.730;2022-08-06T01:45:23;18.10;93.60
16736;DHT22;17990;49.548;9.730;2022-08-06T01:47:54;18.10;93.80
16736;DHT22;17990;49.548;9.730;2022-08-06T01:50:27;18.00;93.90
16736;DHT22;17990;49.548;9.730;2022-08-06T01:52:56;18.00;94.10
16736;DHT22;17990;49.548;9.730;2022-08-06T01:55:27;17.90;94.20
16736;DHT22;17990;49.548;9.730;2022-08-06T01:57:59;17.90;94.60
16736;DHT22;17990;49.548;9.730;2022-08-06T02:00:29;17.80;94.80
16736;DHT22;17990;49.548;9.730;2022-08-06T02:02:59;17.80;95.00
16736;DHT22;17990;49.548;9.730;2022-08-06T02:05:30;17.80;95.20
16736;DHT22;17990;49.548;9.730;2022-08-06T02:07:58;17.70;95.40
16736;DHT22;17990;49.548;9.730;2022-08-06T02:10:28;17.70;95.50
16736;DHT22;17990;49.548;9.730;2022-08-06T02:12:59;17.70;95.60
16736;DHT22;17990;49.548;9.730;2022-08-06T02:15:29;17.70;95.80
16736;DHT22;17990;49.548;9.730;2022-08-06T02:17:58;17.60;95.90
16736;DHT22;17990;49.548;9.730;2022-08-06T02:20:30;17.60;96.10
16736;DHT22;17990;49.548;9.730;2022-08-06T02:23:00;17.60;96.20
16736;DHT22;17990;49.548;9.730;2022-08-06T02:25:31;17.60;96.40
16736;DHT22;17990;49.548;9.730;2022-08-06T02:28:00;17.50;96.70
16736;DHT22;17990;49.548;9.730;2022-08-06T02:30:32;17.40;97.00
16736;DHT22;17990;49.548;9.730;2022-08-06T02:33:00;17.40;97.20
16736;DHT22;17990;49.548;9.730;2022-08-06T02:35:29;17.20;97.60
16736;DHT22;17990;49.548;9.730;2022-08-06T02:38:16;17.10;98.00
16736;DHT22;17990;49.548;9.730;2022-08-06T02:40:49;17.10;98.40
16736;DHT22;17990;49.548;9.730;2022-08-06T02:43:30;17.10;98.70
16736;DHT22;17990;49.548;9.730;2022-08-06T02:46:05;17.00;98.90
16736;DHT22;17990;49.548;9.730;2022-08-06T02:48:42;17.00;99.30
16736;DHT22;17990;49.548;9.730;2022-08-06T02:51:17;16.90;99.60
16736;DHT22;17990;49.548;9.730;2022-08-06T02:53:56;16.80;99.90
16736;DHT22;17990;49.548;9.730;2022-08-06T02:56:26;16.80;99.90
16736;DHT22;17990;49.548;9.730;2022-08-06T02:58:57;16.80;99.90
16736;DHT22;17990;49.548;9.730;2022-08-06T03:01:29;16.70;99.90
16736;DHT22;17990;49.548;9.730;2022-08-06T03:03:58;16.70;99.90
16736;DHT22;17990;49.548;9.730;2022-08-06T03:06:30;16.70;99.90
16736;DHT22;17990;49.548;9.730;2022-08-06T03:09:00;16.80;99.90
16736;DHT22;17990;49.548;9.730;2022-08-06T03:11:31;16.70;99.90
16736;DHT22;17990;49.548;9.730;2022-08-06T03:14:02;16.80;99.90
16736;DHT22;17990;49.548;9.730;2022-08-06T03:16:35;16.70;99.90
16736;DHT22;17990;49.548;9.730;2022-08-06T03:19:03;16.70;99.90
16736;DHT22;17990;49.548;9.730;2022-08-06T03:21:31;16.70;99.90
16736;DHT22;17990;49.548;9.730;2022-08-06T03:24:00;16.70;99.90
16736;DHT22;17990;49.548;9.730;2022-08-06T03:26:29;16.70;99.90
16736;DHT22;17990;49.548;9.730;2022-08-06T03:28:58;16.60;99.90
16736;DHT22;17990;49.548;9.730;2022-08-06T03:31:28;16.60;99.90
16736;DHT22;17990;49.548;9.730;2022-08-06T03:33:57;16.60;99.90
16736;DHT22;17990;49.548;9.730;2022-08-06T03:36:24;16.60;99.90
16736;DHT22;17990;49.548;9.730;2022-08-06T03:38:55;16.50;99.90
16736;DHT22;17990;49.548;9.730;2022-08-06T03:41:24;16.50;99.90
16736;DHT22;17990;49.548;9.730;2022-08-06T03:43:51;16.40;99.90
16736;DHT22;17990;49.548;9.730;2022-08-06T03:46:24;16.40;99.90
16736;DHT22;17990;49.548;9.730;2022-08-06T03:48:54;16.30;99.90
16736;DHT22;17990;49.548;9.730;2022-08-06T03:51:26;16.30;99.90
16736;DHT22;17990;49.548;9.730;2022-08-06T03:53:56;16.30;99.90
16736;DHT22;17990;49.548;9.730;2022-08-06T03:56:27;16.20;99.90
16736;DHT22;17990;49.548;9.730;2022-08-06T03:58:54;16.20;99.90
16736;DHT22;17990;49.548;9.730;2022-08-06T04:01:27;16.20;99.90
16736;DHT22;17990;49.548;9.730;2022-08-06T04:03:57;16.10;99.90
16736;DHT22;17990;49.548;9.730;2022-08-06T04:06:24;16.10;99.90
16736;DHT22;17990;49.548;9.730;2022-08-06T04:08:52;16.10;99.90
16736;DHT22;17990;49.548;9.730;2022-08-06T04:11:21;16.10;99.90
16736;DHT22;17990;49.548;9.730;2022-08-06T04:13:49;16.00;99.90
16736;DHT22;17990;49.548;9.730;2022-08-06T04:16:16;16.00;99.90
16736;DHT22;17990;49.548;9.730;2022-08-06T04:18:45;15.90;99.90
16736;DHT22;17990;49.548;9.730;2022-08-06T04:21:16;15.90;99.90
16736;DHT22;17990;49.548;9.730;2022-08-06T04:23:45;16.00;99.90
16736;DHT22;17990;49.548;9.730;2022-08-06T04:26:15;16.00;99.90
16736;DHT22;17990;49.548;9.730;2022-08-06T04:28:47;16.00;99.90
16736;DHT22;17990;49.548;9.730;2022-08-06T04:31:17;16.00;99.90
16736;DHT22;17990;49.548;9.730;2022-08-06T04:33:47;16.00;99.90
16736;DHT22;17990;49.548;9.730;2022-08-06T04:36:15;16.10;99.90
16736;DHT22;17990;49.548;9.730;2022-08-06T04:38:42;16.10;99.90
16736;DHT22;17990;49.548;9.730;2022-08-06T04:41:11;16.10;99.90
16736;DHT22;17990;49.548;9.730;2022-08-06T04:43:39;16.10;99.90
16736;DHT22;17990;49.548;9.730;2022-08-06T04:46:07;16.10;99.90
16736;DHT22;17990;49.548;9.730;2022-08-06T04:48:35;16.10;99.90
16736;DHT22;17990;49.548;9.730;2022-08-06T04:51:03;16.20;99.90
16736;DHT22;17990;49.548;9.730;2022-08-06T04:53:36;16.10;99.90
16736;DHT22;17990;49.548;9.730;2022-08-06T04:56:04;16.20;99.90
16736;DHT22;17990;49.548;9.730;2022-08-06T04:58:31;16.20;99.90
16736;DHT22;17990;49.548;9.730;2022-08-06T05:00:59;16.30;99.90
16736;DHT22;17990;49.548;9.730;2022-08-06T05:03:27;16.40;99.90
16736;DHT22;17990;49.548;9.730;2022-08-06T05:08:42;16.60;99.90
16736;DHT22;17990;49.548;9.730;2022-08-06T05:11:13;16.60;99.90
16736;DHT22;17990;49.548;9.730;2022-08-06T05:13:45;16.70;99.90
16736;DHT22;17990;49.548;9.730;2022-08-06T05:16:14;16.80;99.90
16736;DHT22;17990;49.548;9.730;2022-08-06T05:18:44;16.90;99.90
16736;DHT22;17990;49.548;9.730;2022-08-06T05:21:27;17.00;99.90
16736;DHT22;17990;49.548;9.730;2022-08-06T05:23:56;17.10;99.90
16736;DHT22;17990;49.548;9.730;2022-08-06T05:26:24;17.20;99.90
16736;DHT22;17990;49.548;9.730;2022-08-06T05:28:51;17.20;99.90
16736;DHT22;17990;49.548;9.730;2022-08-06T05:31:28;17.20;99.90
16736;DHT22;17990;49.548;9.730;2022-08-06T05:33:56;17.20;99.90
16736;DHT22;17990;49.548;9.730;2022-08-06T05:36:24;17.20;99.90
16736;DHT22;17990;49.548;9.730;2022-08-06T05:38:51;17.30;99.90
16736;DHT22;17990;49.548;9.730;2022-08-06T05:41:19;17.40;99.90
16736;DHT22;17990;49.548;9.730;2022-08-06T05:43:46;17.50;99.90
16736;DHT22;17990;49.548;9.730;2022-08-06T05:46:15;17.70;99.90
16736;DHT22;17990;49.548;9.730;2022-08-06T05:48:48;18.30;99.90
16736;DHT22;17990;49.548;9.730;2022-08-06T05:51:21;22.50;98.40
16736;DHT22;17990;49.548;9.730;2022-08-06T05:53:59;26.30;81.60
16736;DHT22;17990;49.548;9.730;2022-08-06T05:56:35;28.00;70.10
16736;DHT22;17990;49.548;9.730;2022-08-06T05:59:07;28.70;64.30
16736;DHT22;17990;49.548;9.730;2022-08-06T06:01:37;29.20;61.00
16736;DHT22;17990;49.548;9.730;2022-08-06T06:04:04;30.20;57.80
16736;DHT22;17990;49.548;9.730;2022-08-06T06:06:33;30.70;55.70
16736;DHT22;17990;49.548;9.730;2022-08-06T06:09:00;31.80;51.80
16736;DHT22;17990;49.548;9.730;2022-08-06T06:11:28;32.90;49.60
16736;DHT22;17990;49.548;9.730;2022-08-06T06:13:56;33.70;47.20
16736;DHT22;17990;49.548;9.730;2022-08-06T06:16:26;32.50;47.60
16736;DHT22;17990;49.548;9.730;2022-08-06T06:19:02;31.10;50.10
16736;DHT22;17990;49.548;9.730;2022-08-06T06:21:47;31.60;49.40
16736;DHT22;17990;49.548;9.730;2022-08-06T06:24:22;32.30;48.20
16736;DHT22;17990;49.548;9.730;2022-08-06T06:26:57;32.80;46.90
16736;DHT22;17990;49.548;9.730;2022-08-06T06:29:47;31.60;47.90
16736;DHT22;17990;49.548;9.730;2022-08-06T06:32:22;31.00;48.90
16736;DHT22;17990;49.548;9.730;2022-08-06T06:35:01;30.80;49.40
16736;DHT22;17990;49.548;9.730;2022-08-06T06:37:39;29.90;50.00
16736;DHT22;17990;49.548;9.730;2022-08-06T06:40:25;29.80;49.90
16736;DHT22;17990;49.548;9.730;2022-08-06T06:43:14;29.90;50.00
16736;DHT22;17990;49.548;9.730;2022-08-06T06:45:51;30.40;48.50
16736;DHT22;17990;49.548;9.730;2022-08-06T06:48:31;29.80;49.10
16736;DHT22;17990;49.548;9.730;2022-08-06T06:51:03;30.40;48.80
16736;DHT22;17990;49.548;9.730;2022-08-06T06:53:37;30.30;48.10
16736;DHT22;17990;49.548;9.730;2022-08-06T06:56:08;29.70;49.30
16736;DHT22;17990;49.548;9.730;2022-08-06T06:58:39;30.80;47.80
16736;DHT22;17990;49.548;9.730;2022-08-06T07:01:10;30.90;47.10
16736;DHT22;17990;49.548;9.730;2022-08-06T07:03:39;31.30;46.30
16736;DHT22;17990;49.548;9.730;2022-08-06T07:06:07;31.70;45.90
16736;DHT22;17990;49.548;9.730;2022-08-06T07:08:40;31.60;45.90
16736;DHT22;17990;49.548;9.730;2022-08-06T07:11:11;32.50;44.60
16736;DHT22;17990;49.548;9.730;2022-08-06T07:13:41;32.50;44.50
16736;DHT22;17990;49.548;9.730;2022-08-06T07:16:11;32.00;44.80
16736;DHT22;17990;49.548;9.730;2022-08-06T07:18:41;32.80;43.60
16736;DHT22;17990;49.548;9.730;2022-08-06T07:21:08;32.80;43.90
16736;DHT22;17990;49.548;9.730;2022-08-06T07:23:37;32.90;42.90
16736;DHT22;17990;49.548;9.730;2022-08-06T07:26:05;32.70;43.30
16736;DHT22;17990;49.548;9.730;2022-08-06T07:28:32;32.70;43.10
16736;DHT22;17990;49.548;9.730;2022-08-06T07:31:03;33.10;42.30
16736;DHT22;17990;49.548;9.730;2022-08-06T07:33:32;33.50;41.70
16736;DHT22;17990;49.548;9.730;2022-08-06T07:36:00;33.10;41.60
16736;DHT22;17990;49.548;9.730;2022-08-06T07:38:28;32.00;43.40
16736;DHT22;17990;49.548;9.730;2022-08-06T07:41:02;31.00;44.60
16736;DHT22;17990;49.548;9.730;2022-08-06T07:43:34;30.90;45.50
16736;DHT22;17990;49.548;9.730;2022-08-06T07:46:06;31.70;44.20
16736;DHT22;17990;49.548;9.730;2022-08-06T07:48:37;32.30;43.50
16736;DHT22;17990;49.548;9.730;2022-08-06T07:51:06;32.60;43.00
16736;DHT22;17990;49.548;9.730;2022-08-06T07:53:34;32.20;43.70
16736;DHT22;17990;49.548;9.730;2022-08-06T07:56:06;32.30;43.40
16736;DHT22;17990;49.548;9.730;2022-08-06T07:58:34;32.60;42.80
16736;DHT22;17990;49.548;9.730;2022-08-06T08:01:02;32.10;43.10
16736;DHT22;17990;49.548;9.730;2022-08-06T08:03:30;31.20;44.40
16736;DHT22;17990;49.548;9.730;2022-08-06T08:06:16;31.40;44.30
16736;DHT22;17990;49.548;9.730;2022-08-06T08:08:53;31.10;44.50
16736;DHT22;17990;49.548;9.730;2022-08-06T08:11:24;31.30;44.00
16736;DHT22;17990;49.548;9.730;2022-08-06T08:13:53;31.20;44.60
16736;DHT22;17990;49.548;9.730;2022-08-06T08:16:21;31.20;44.50
16736;DHT22;17990;49.548;9.730;2022-08-06T08:18:48;29.90;46.10
16736;DHT22;17990;49.548;9.730;2022-08-06T08:21:16;29.50;47.40
16736;DHT22;17990;49.548;9.730;2022-08-06T08:23:44;29.80;47.00
16736;DHT22;17990;49.548;9.730;2022-08-06T08:26:13;29.00;47.20
16736;DHT22;17990;49.548;9.730;2022-08-06T08:28:41;28.40;48.10
16736;DHT22;17990;49.548;9.730;2022-08-06T08:31:08;28.50;48.60
16736;DHT22;17990;49.548;9.730;2022-08-06T08:33:38;27.90;49.30
16736;DHT22;17990;49.548;9.730;2022-08-06T08:36:06;27.10;50.70
16736;DHT22;17990;49.548;9.730;2022-08-06T08:38:34;27.10;51.10
16736;DHT22;17990;49.548;9.730;2022-08-06T08:41:04;26.90;50.80
16736;DHT22;17990;49.548;9.730;2022-08-06T08:43:38;26.50;51.40
16736;DHT22;17990;49.548;9.730;2022-08-06T08:46:09;27.10;50.50
16736;DHT22;17990;49.548;9.730;2022-08-06T08:48:37;26.70;51.50
16736;DHT22;17990;49.548;9.730;2022-08-06T08:51:04;26.60;52.20
16736;DHT22;17990;49.548;9.730;2022-08-06T08:53:37;26.30;52.60
16736;DHT22;17990;49.548;9.730;2022-08-06T08:56:05;25.90;53.40
16736;DHT22;17990;49.548;9.730;2022-08-06T08:58:33;25.10;55.00
16736;DHT22;17990;49.548;9.730;2022-08-06T09:01:04;25.20;55.00
16736;DHT22;17990;49.548;9.730;2022-08-06T09:03:36;25.20;55.00
16736;DHT22;17990;49.548;9.730;2022-08-06T09:06:05;25.60;54.20
16736;DHT22;17990;49.548;9.730;2022-08-06T09:08:33;25.40;54.60
16736;DHT22;17990;49.548;9.730;2022-08-06T09:11:02;25.40;54.70
16736;DHT22;17990;49.548;9.730;2022-08-06T09:13:30;25.00;55.40
16736;DHT22;17990;49.548;9.730;2022-08-06T09:15:57;24.90;55.40
16736;DHT22;17990;49.548;9.730;2022-08-06T09:18:25;24.70;55.60
16736;DHT22;17990;49.548;9.730;2022-08-06T09:20:54;24.60;55.80
16736;DHT22;17990;49.548;9.730;2022-08-06T09:23:21;24.80;55.60
16736;DHT22;17990;49.548;9.730;2022-08-06T09:25:49;24.60;56.10
16736;DHT22;17990;49.548;9.730;2022-08-06T09:28:28;24.80;55.90
16736;DHT22;17990;49.548;9.730;2022-08-06T09:30:58;24.50;56.10
16736;DHT22;17990;49.548;9.730;2022-08-06T09:33:27;24.70;56.10
16736;DHT22;17990;49.548;9.730;2022-08-06T09:36:00;24.20;57.00
16736;DHT22;17990;49.548;9.730;2022-08-06T09:38:28;23.70;58.10
16736;DHT22;17990;49.548;9.730;2022-08-06T09:41:04;23.60;58.00
16736;DHT22;17990;49.548;9.730;2022-08-06T09:43:32;23.70;58.10
16736;DHT22;17990;49.548;9.730;2022-08-06T09:45:59;23.50;58.80
16736;DHT22;17990;49.548;9.730;2022-08-06T09:48:26;23.40;59.10
16736;DHT22;17990;49.548;9.730;2022-08-06T09:50:53;23.20;59.20
16736;DHT22;17990;49.548;9.730;2022-08-06T09:53:21;23.30;59.00
16736;DHT22;17990;49.548;9.730;2022-08-06T09:55:49;23.50;58.40
16736;DHT22;17990;49.548;9.730;2022-08-06T09:58:27;23.50;58.30
16736;DHT22;17990;49.548;9.730;2022-08-06T10:00:56;23.10;58.70
16736;DHT22;17990;49.548;9.730;2022-08-06T10:03:23;23.10;58.70
16736;DHT22;17990;49.548;9.730;2022-08-06T10:06:04;23.10;58.40
16736;DHT22;17990;49.548;9.730;2022-08-06T10:08:33;23.40;57.90
16736;DHT22;17990;49.548;9.730;2022-08-06T10:11:00;23.30;57.80
16736;DHT22;17990;49.548;9.730;2022-08-06T10:13:30;23.10;58.20
16736;DHT22;17990;49.548;9.730;2022-08-06T10:16:00;23.30;58.20
16736;DHT22;17990;49.548;9.730;2022-08-06T10:18:42;23.40;57.90
16736;DHT22;17990;49.548;9.730;2022-08-06T10:21:11;23.50;57.40
16736;DHT22;17990;49.548;9.730;2022-08-06T10:23:45;23.50;57.30
16736;DHT22;17990;49.548;9.730;2022-08-06T10:26:16;23.60;57.10
16736;DHT22;17990;49.548;9.730;2022-08-06T10:28:46;23.50;57.10
16736;DHT22;17990;49.548;9.730;2022-08-06T10:31:16;23.70;56.80
16736;DHT22;17990;49.548;9.730;2022-08-06T10:33:48;23.80;56.70
16736;DHT22;17990;49.548;9.730;2022-08-06T10:36:21;23.50;57.00
16736;DHT22;17990;49.548;9.730;2022-08-06T10:38:54;23.40;57.00
16736;DHT22;17990;49.548;9.730;2022-08-06T10:41:22;23.60;56.30
16736;DHT22;17990;49.548;9.730;2022-08-06T10:43:50;23.50;56.80
16736;DHT22;17990;49.548;9.730;2022-08-06T10:46:20;23.80;56.40
16736;DHT22;17990;49.548;9.730;2022-08-06T10:48:47;23.90;54.50
16736;DHT22;17990;49.548;9.730;2022-08-06T10:51:15;23.90;54.20
16736;DHT22;17990;49.548;9.730;2022-08-06T10:53:44;23.60;54.90
16736;DHT22;17990;49.548;9.730;2022-08-06T10:56:15;23.50;54.80
16736;DHT22;17990;49.548;9.730;2022-08-06T10:58:42;23.60;54.60
16736;DHT22;17990;49.548;9.730;2022-08-06T11:01:17;23.70;54.20
16736;DHT22;17990;49.548;9.730;2022-08-06T11:03:57;23.80;53.80
16736;DHT22;17990;49.548;9.730;2022-08-06T11:06:46;23.70;53.90
16736;DHT22;17990;49.548;9.730;2022-08-06T11:09:43;23.40;54.00
16736;DHT22;17990;49.548;9.730;2022-08-06T11:12:35;23.70;54.40
16736;DHT22;17990;49.548;9.730;2022-08-06T11:15:08;24.10;53.60
16736;DHT22;17990;49.548;9.730;2022-08-06T11:17:43;24.30;53.30
16736;DHT22;17990;49.548;9.730;2022-08-06T11:20:37;24.20;52.70
16736;DHT22;17990;49.548;9.730;2022-08-06T11:23:23;24.20;52.10
16736;DHT22;17990;49.548;9.730;2022-08-06T11:25:53;24.40;51.90
16736;DHT22;17990;49.548;9.730;2022-08-06T11:28:59;24.10;52.70
16736;DHT22;17990;49.548;9.730;2022-08-06T11:31:32;24.00;52.90
16736;DHT22;17990;49.548;9.730;2022-08-06T11:34:05;24.30;52.20
16736;DHT22;17990;49.548;9.730;2022-08-06T11:36:50;24.20;51.70
16736;DHT22;17990;49.548;9.730;2022-08-06T11:39:21;24.30;52.00
16736;DHT22;17990;49.548;9.730;2022-08-06T11:41:57;24.20;51.70
16736;DHT22;17990;49.548;9.730;2022-08-06T11:44:31;24.20;51.90
16736;DHT22;17990;49.548;9.730;2022-08-06T11:47:11;24.20;51.20
16736;DHT22;17990;49.548;9.730;2022-08-06T11:49:43;24.00;51.00
16736;DHT22;17990;49.548;9.730;2022-08-06T11:52:39;24.20;51.30
16736;DHT22;17990;49.548;9.730;2022-08-06T11:55:09;24.40;51.10
16736;DHT22;17990;49.548;9.730;2022-08-06T11:57:37;24.40;50.40
16736;DHT22;17990;49.548;9.730;2022-08-06T12:00:19;24.60;50.50
16736;DHT22;17990;49.548;9.730;2022-08-06T12:02:57;24.70;50.10
16736;DHT22;17990;49.548;9.730;2022-08-06T12:05:38;24.60;50.50
16736;DHT22;17990;49.548;9.730;2022-08-06T12:08:21;24.80;50.30
16736;DHT22;17990;49.548;9.730;2022-08-06T12:11:24;24.90;50.10
16736;DHT22;17990;49.548;9.730;2022-08-06T12:14:01;25.00;49.40
16736;DHT22;17990;49.548;9.730;2022-08-06T12:16:38;25.10;49.20
16736;DHT22;17990;49.548;9.730;2022-08-06T12:19:12;25.40;48.80
16736;DHT22;17990;49.548;9.730;2022-08-06T12:21:41;25.50;48.50
16736;DHT22;17990;49.548;9.730;2022-08-06T12:24:10;25.50;48.70
16736;DHT22;17990;49.548;9.730;2022-08-06T12:26:39;25.80;48.60
16736;DHT22;17990;49.548;9.730;2022-08-06T12:29:06;25.90;48.20
16736;DHT22;17990;49.548;9.730;2022-08-06T12:31:38;25.60;48.70
16736;DHT22;17990;49.548;9.730;2022-08-06T12:34:06;25.10;48.90
16736;DHT22;17990;49.548;9.730;2022-08-06T12:36:34;25.20;49.20
16736;DHT22;17990;49.548;9.730;2022-08-06T12:39:05;25.30;48.80
16736;DHT22;17990;49.548;9.730;2022-08-06T12:41:38;25.40;49.00
16736;DHT22;17990;49.548;9.730;2022-08-06T12:44:11;25.50;48.30
16736;DHT22;17990;49.548;9.730;2022-08-06T12:46:40;25.30;47.00
16736;DHT22;17990;49.548;9.730;2022-08-06T12:49:07;25.40;47.30
16736;DHT22;17990;49.548;9.730;2022-08-06T12:51:35;25.50;46.00
16736;DHT22;17990;49.548;9.730;2022-08-06T12:54:05;25.50;45.60
16736;DHT22;17990;49.548;9.730;2022-08-06T12:56:36;25.50;45.70
16736;DHT22;17990;49.548;9.730;2022-08-06T12:59:09;26.00;45.20
16736;DHT22;17990;49.548;9.730;2022-08-06T13:01:37;26.30;45.00
16736;DHT22;17990;49.548;9.730;2022-08-06T13:04:07;26.10;45.00
16736;DHT22;17990;49.548;9.730;2022-08-06T13:06:38;25.90;45.10
16736;DHT22;17990;49.548;9.730;2022-08-06T13:09:06;25.80;44.80
16736;DHT22;17990;49.548;9.730;2022-08-06T13:11:34;25.70;44.70
16736;DHT22;17990;49.548;9.730;2022-08-06T13:14:12;25.60;45.10
16736;DHT22;17990;49.548;9.730;2022-08-06T13:16:43;25.80;45.30
16736;DHT22;17990;49.548;9.730;2022-08-06T13:19:12;25.90;44.00
16736;DHT22;17990;49.548;9.730;2022-08-06T13:21:42;26.00;43.80
16736;DHT22;17990;49.548;9.730;2022-08-06T13:24:10;25.90;44.10
16736;DHT22;17990;49.548;9.730;2022-08-06T13:26:50;26.10;43.70
16736;DHT22;17990;49.548;9.730;2022-08-06T13:29:20;25.80;44.00
16736;DHT22;17990;49.548;9.730;2022-08-06T13:31:59;26.00;44.00
16736;DHT22;17990;49.548;9.730;2022-08-06T13:34:28;25.80;43.60
16736;DHT22;17990;49.548;9.730;2022-08-06T13:36:56;25.70;43.60
16736;DHT22;17990;49.548;9.730;2022-08-06T13:39:26;25.90;43.20
16736;DHT22;17990;49.548;9.730;2022-08-06T13:42:04;26.30;42.50
16736;DHT22;17990;49.548;9.730;2022-08-06T13:44:34;26.20;42.70
16736;DHT22;17990;49.548;9.730;2022-08-06T13:47:05;26.00;42.30
16736;DHT22;17990;49.548;9.730;2022-08-06T13:49:33;26.10;42.70
16736;DHT22;17990;49.548;9.730;2022-08-06T13:52:01;26.20;41.80
16736;DHT22;17990;49.548;9.730;2022-08-06T13:54:28;26.10;42.20
16736;DHT22;17990;49.548;9.730;2022-08-06T13:56:57;26.00;41.60
16736;DHT22;17990;49.548;9.730;2022-08-06T13:59:25;26.10;41.30
16736;DHT22;17990;49.548;9.730;2022-08-06T14:01:54;26.20;41.40
16736;DHT22;17990;49.548;9.730;2022-08-06T14:04:25;26.50;41.80
16736;DHT22;17990;49.548;9.730;2022-08-06T14:06:54;26.50;40.90
16736;DHT22;17990;49.548;9.730;2022-08-06T14:09:23;26.60;41.10
16736;DHT22;17990;49.548;9.730;2022-08-06T14:11:53;26.50;41.50
16736;DHT22;17990;49.548;9.730;2022-08-06T14:14:22;26.30;42.00
16736;DHT22;17990;49.548;9.730;2022-08-06T14:16:50;26.30;41.80
16736;DHT22;17990;49.548;9.730;2022-08-06T14:19:18;26.40;41.30
16736;DHT22;17990;49.548;9.730;2022-08-06T14:21:46;26.50;41.30
16736;DHT22;17990;49.548;9.730;2022-08-06T14:24:13;26.70;41.10
16736;DHT22;17990;49.548;9.730;2022-08-06T14:26:40;26.90;40.70
16736;DHT22;17990;49.548;9.730;2022-08-06T14:29:07;26.70;41.10
16736;DHT22;17990;49.548;9.730;2022-08-06T14:31:34;26.50;41.30
16736;DHT22;17990;49.548;9.730;2022-08-06T14:34:00;26.40;41.30
16736;DHT22;17990;49.548;9.730;2022-08-06T14:36:28;26.40;41.30
16736;DHT22;17990;49.548;9.730;2022-08-06T14:38:57;26.60;41.00
16736;DHT22;17990;49.548;9.730;2022-08-06T14:41:24;26.70;41.50
16736;DHT22;17990;49.548;9.730;2022-08-06T14:44:10;26.80;40.70
16736;DHT22;17990;49.548;9.730;2022-08-06T14:46:55;26.80;40.20
16736;DHT22;17990;49.548;9.730;2022-08-06T14:49:22;26.60;40.60
16736;DHT22;17990;49.548;9.730;2022-08-06T14:51:49;26.40;41.10
16736;DHT22;17990;49.548;9.730;2022-08-06T14:54:18;26.40;40.90
16736;DHT22;17990;49.548;9.730;2022-08-06T14:56:46;26.30;41.10
16736;DHT22;17990;49.548;9.730;2022-08-06T14:59:13;26.30;40.80
16736;DHT22;17990;49.548;9.730;2022-08-06T15:01:40;26.40;40.60
16736;DHT22;17990;49.548;9.730;2022-08-06T15:04:07;26.50;40.90
16736;DHT22;17990;49.548;9.730;2022-08-06T15:06:34;26.60;40.90
16736;DHT22;17990;49.548;9.730;2022-08-06T15:09:01;26.40;40.40
16736;DHT22;17990;49.548;9.730;2022-08-06T15:11:30;26.50;40.50
16736;DHT22;17990;49.548;9.730;2022-08-06T15:13:57;26.50;40.40
16736;DHT22;17990;49.548;9.730;2022-08-06T15:16:24;26.50;40.80
16736;DHT22;17990;49.548;9.730;2022-08-06T15:18:51;26.60;40.70
16736;DHT22;17990;49.548;9.730;2022-08-06T15:21:18;26.60;40.90
16736;DHT22;17990;49.548;9.730;2022-08-06T15:23:45;26.60;40.20
16736;DHT22;17990;49.548;9.730;2022-08-06T15:26:13;26.70;40.30
16736;DHT22;17990;49.548;9.730;2022-08-06T15:28:41;26.80;39.80
16736;DHT22;17990;49.548;9.730;2022-08-06T15:31:08;26.90;39.90
16736;DHT22;17990;49.548;9.730;2022-08-06T15:33:35;26.90;40.00
16736;DHT22;17990;49.548;9.730;2022-08-06T15:36:03;26.60;39.70
16736;DHT22;17990;49.548;9.730;2022-08-06T15:38:30;26.30;40.00
16736;DHT22;17990;49.548;9.730;2022-08-06T15:40:57;26.30;40.20
16736;DHT22;17990;49.548;9.730;2022-08-06T15:43:24;26.50;40.50
16736;DHT22;17990;49.548;9.730;2022-08-06T15:45:53;26.40;40.30
16736;DHT22;17990;49.548;9.730;2022-08-06T15:48:20;26.40;40.50
16736;DHT22;17990;49.548;9.730;2022-08-06T15:50:50;26.20;40.70
16736;DHT22;17990;49.548;9.730;2022-08-06T15:53:17;26.40;40.90
16736;DHT22;17990;49.548;9.730;2022-08-06T15:55:45;26.60;40.80